Time;durP1;ratioP1;P1;durP2;ratioP2;P2;SDS_P1;SDS_P2;PMS_P1;PMS_P2;Temp;Humidity;BMP_temperature;BMP_pressure;BME280_temperature;BME280_humidity;BME280_pressure;Samples;Min_cycle;Max_cycle;Signal;HPM_P1;HPM_P2
2023/03/18 00:01:24;;;;;;;;;26.00;25.00;;;;;13.38;83.80;100507.00;5120409;27;46443;-63
2023/03/18 00:03:50;;;;;;;;;21.00;19.00;;;;;13.42;82.76;100515.72;5120074;27;45471;-63
2023/03/18 00:06:17;;;;;;;;;28.67;21.00;;;;;13.42;83.61;100515.72;5120302;27;45379;-63
2023/03/18 00:08:46;;;;;;;;;29.67;23.33;;;;;13.19;83.36;100477.75;5120304;27;45762;-63
2023/03/18 00:11:13;;;;;;;;;23.00;22.00;;;;;13.37;82.71;100513.22;5119889;27;46023;-63
2023/03/18 00:13:40;;;;;;;;;22.00;20.67;;;;;13.38;83.70;100520.22;5120342;27;45363;-63
2023/03/18 00:16:07;;;;;;;;;21.00;19.00;;;;;13.36;83.25;100511.50;5120126;27;45306;-63
2023/03/18 00:18:33;;;;;;;;;22.67;21.00;;;;;13.35;84.73;100519.50;5120578;27;45474;-63
2023/03/18 00:20:59;;;;;;;;;24.67;22.33;;;;;13.35;85.52;100512.41;5120042;27;45927;-63
2023/03/18 00:23:26;;;;;;;;;22.00;20.00;;;;;13.39;85.25;100510.53;5119735;27;45308;-63
2023/03/18 00:25:55;;;;;;;;;23.00;21.00;;;;;13.37;84.36;100513.22;5120296;27;45562;-63
2023/03/18 00:28:21;;;;;;;;;25.33;21.67;;;;;13.37;85.81;100517.66;5119919;27;45508;-63
2023/03/18 00:30:48;;;;;;;;;27.00;22.00;;;;;13.24;85.48;100496.94;5119779;27;47606;-63
2023/03/18 00:33:14;;;;;;;;;20.67;19.67;;;;;13.36;84.20;100516.81;5119115;27;45384;-63
2023/03/18 00:35:39;;;;;;;;;27.33;23.00;;;;;13.39;85.93;100526.41;5119932;27;45771;-63
2023/03/18 00:38:07;;;;;;;;;17.00;17.00;;;;;13.40;84.94;100536.94;5120182;27;45313;-65
2023/03/18 00:40:52;;;;;;;;;22.33;20.67;;;;;13.40;84.17;100523.69;5119468;27;47424;-65
2023/03/18 00:43:21;;;;;;;;;21.67;20.67;;;;;13.13;86.09;100491.19;5119536;27;45386;-65
2023/03/18 00:45:49;;;;;;;;;23.33;20.33;;;;;13.31;87.01;100531.06;5119784;27;45311;-63
2023/03/18 00:48:15;;;;;;;;;21.67;19.67;;;;;13.34;87.05;100531.84;5120003;27;45367;-63
2023/03/18 00:50:41;;;;;;;;;24.67;20.00;;;;;13.23;85.84;100529.59;5119516;27;46107;-63
2023/03/18 00:53:07;;;;;;;;;23.67;20.33;;;;;13.28;86.88;100539.97;5119709;27;46478;-63
2023/03/18 00:55:32;;;;;;;;;27.33;23.67;;;;;13.29;87.42;100532.91;5119466;27;45346;-63
2023/03/18 00:57:57;;;;;;;;;24.00;22.00;;;;;13.24;87.05;100518.09;5119652;27;45454;-63
2023/03/18 01:00:25;;;;;;;;;23.33;20.33;;;;;13.23;86.73;100524.28;5119591;27;46371;-63
2023/03/18 01:02:50;;;;;;;;;27.00;25.33;;;;;13.17;87.32;100510.44;5119276;27;45452;-63
2023/03/18 01:05:16;;;;;;;;;23.67;21.33;;;;;13.08;87.60;100495.78;5119621;27;45351;-63
2023/03/18 01:07:42;;;;;;;;;28.67;23.67;;;;;13.23;87.64;100528.72;5119534;27;45343;-63
2023/03/18 01:10:09;;;;;;;;;23.67;22.33;;;;;13.09;86.84;100504.59;5118995;27;46333;-63
2023/03/18 01:12:34;;;;;;;;;19.67;17.33;;;;;13.31;85.79;100539.88;5119235;27;45475;-63
2023/03/18 01:15:00;;;;;;;;;25.67;21.33;;;;;13.21;86.20;100525.25;5119371;27;45319;-63
2023/03/18 01:17:25;;;;;;;;;26.67;23.33;;;;;13.24;87.41;100533.06;5119458;27;45311;-63
2023/03/18 01:19:51;;;;;;;;;33.00;26.00;;;;;13.19;86.39;100525.31;5119327;27;45363;-63
2023/03/18 01:22:17;;;;;;;;;21.67;21.00;;;;;12.98;85.89;100489.09;5119177;27;45222;-63
2023/03/18 01:24:43;;;;;;;;;21.33;20.00;;;;;13.18;86.36;100535.97;5119123;27;45459;-63
2023/03/18 01:27:09;;;;;;;;;28.00;23.33;;;;;13.16;87.52;100537.81;5119226;27;45339;-63
2023/03/18 01:29:35;;;;;;;;;20.33;19.00;;;;;13.07;86.12;100517.88;5118852;27;46289;-63
2023/03/18 01:32:01;;;;;;;;;22.00;20.33;;;;;13.04;86.67;100525.88;5119168;27;45309;-63
2023/03/18 01:34:27;;;;;;;;;22.00;18.67;;;;;13.05;84.99;100525.81;5118996;27;45246;-63
2023/03/18 01:36:54;;;;;;;;;21.00;19.00;;;;;13.00;85.71;100522.50;5119288;27;45220;-63
2023/03/18 01:39:22;;;;;;;;;21.00;18.67;;;;;12.99;85.76;100523.41;5118686;27;46282;-63
2023/03/18 01:41:48;;;;;;;;;23.67;22.67;;;;;12.97;87.24;100521.72;5118270;27;45401;-63
2023/03/18 01:44:18;;;;;;;;;24.33;19.00;;;;;12.90;88.20;100510.53;5118683;27;45285;-63
2023/03/18 01:46:45;;;;;;;;;19.67;16.33;;;;;12.92;86.99;100515.78;5118473;27;45482;-63
2023/03/18 01:49:32;;;;;;;;;22.67;19.33;;;;;12.93;87.05;100517.50;5118727;27;46143;-63
2023/03/18 01:52:02;;;;;;;;;21.67;19.67;;;;;12.91;88.16;100516.69;5118726;27;45445;-63
2023/03/18 01:54:31;;;;;;;;;21.33;19.33;;;;;12.86;88.49;100520.34;5117762;27;45411;-63
2023/03/18 01:56:58;;;;;;;;;20.67;15.00;;;;;12.85;88.08;100521.28;5118751;27;45473;-63
2023/03/18 01:59:27;;;;;;;;;16.00;16.00;;;;;12.89;88.38;100522.03;5118639;27;46213;-63
2023/03/18 02:01:58;;;;;;;;;15.33;15.33;;;;;12.89;87.78;100530.84;5118508;27;45266;-63
2023/03/18 02:04:30;;;;;;;;;20.33;17.00;;;;;12.89;87.39;100524.66;5118587;27;45456;-63
2023/03/18 02:06:57;;;;;;;;;19.00;15.33;;;;;12.86;87.02;100519.50;5118823;27;45557;-63
2023/03/18 02:09:23;;;;;;;;;17.67;14.00;;;;;12.81;88.14;100510.84;5118181;27;45395;-63
2023/03/18 02:11:50;;;;;;;;;19.00;17.00;;;;;12.85;88.03;100520.41;5118063;27;45569;-63
2023/03/18 02:14:20;;;;;;;;;18.00;17.00;;;;;12.82;87.45;100521.41;5118622;27;45389;-63
2023/03/18 02:17:00;;;;;;;;;21.00;18.67;;;;;12.77;87.25;100507.47;5118526;27;45537;-63
2023/03/18 02:19:49;;;;;;;;;20.33;17.33;;;;;12.79;88.35;100515.34;5118316;27;46302;-63
2023/03/18 02:22:23;;;;;;;;;18.67;17.33;;;;;12.66;88.04;100488.50;5118270;27;45280;-63
2023/03/18 02:25:13;;;;;;;;;19.67;14.67;;;;;12.69;88.39;100498.94;5118349;27;45219;-63
2023/03/18 02:27:45;;;;;;;;;20.00;17.00;;;;;12.62;87.91;100494.81;5118412;27;45452;-63
2023/03/18 02:30:19;;;;;;;;;15.67;14.00;;;;;12.56;87.25;100492.38;5118230;27;47067;-63
2023/03/18 02:32:49;;;;;;;;;12.00;12.00;;;;;12.48;87.65;100495.31;5117316;27;45388;-63
2023/03/18 02:35:15;;;;;;;;;12.00;10.33;;;;;12.51;87.24;100506.59;5118351;27;45476;-63
2023/03/18 02:37:40;;;;;;;;;13.33;12.33;;;;;12.41;86.95;100499.91;5118658;27;45376;-63
2023/03/18 02:40:16;;;;;;;;;14.00;11.33;;;;;12.39;86.84;100500.88;5117980;27;46519;-63
2023/03/18 02:42:43;;;;;;;;;15.33;13.67;;;;;12.26;87.86;100508.38;5117946;27;45344;-63
2023/03/18 02:45:29;;;;;;;;;12.67;12.33;;;;;12.24;86.81;100515.47;5118410;27;45289;-63
2023/03/18 02:47:56;;;;;;;;;14.00;12.00;;;;;12.15;87.65;100508.72;5118455;27;45222;-63
2023/03/18 02:50:23;;;;;;;;;13.33;11.33;;;;;12.17;88.54;100525.41;5117933;27;46427;-63
2023/03/18 02:52:49;;;;;;;;;18.00;13.67;;;;;12.14;88.45;100534.28;5117613;27;45320;-63
2023/03/18 02:55:14;;;;;;;;;16.00;13.00;;;;;12.10;86.69;100534.44;5120017;27;45449;-63
2023/03/18 02:57:39;;;;;;;;;14.67;11.67;;;;;12.08;87.37;100538.88;5121633;27;45546;-63
2023/03/18 03:00:07;;;;;;;;;15.00;12.00;;;;;12.04;88.51;100532.84;5121549;27;46705;-63
2023/03/18 03:02:32;;;;;;;;;11.00;11.00;;;;;11.99;88.44;100524.19;5121385;27;45316;-63
2023/03/18 03:04:58;;;;;;;;;9.33;9.33;;;;;11.96;87.61;100527.78;5121442;27;45224;-63
2023/03/18 03:07:26;;;;;;;;;15.33;11.67;;;;;11.94;88.28;100539.34;5121338;27;45415;-63
2023/03/18 03:09:52;;;;;;;;;11.33;10.33;;;;;11.90;88.38;100551.72;5121226;27;46222;-63
2023/03/18 03:12:17;;;;;;;;;13.67;12.00;;;;;11.86;88.49;100555.34;5121055;27;45209;-64
2023/03/18 03:14:43;;;;;;;;;17.00;14.00;;;;;11.83;88.97;100544.91;5121353;27;45351;-63
2023/03/18 03:17:09;;;;;;;;;17.67;14.67;;;;;11.81;88.84;100523.00;5121415;27;45324;-63
2023/03/18 03:19:35;;;;;;;;;20.00;17.00;;;;;11.73;88.78;100495.97;5121144;27;46298;-63
2023/03/18 03:22:01;;;;;;;;;15.33;13.33;;;;;11.50;89.36;100466.78;5121070;27;45343;-63
2023/03/18 03:24:26;;;;;;;;;17.00;13.67;;;;;11.66;89.91;100495.31;5121105;27;45468;-63
2023/03/18 03:26:51;;;;;;;;;12.67;10.33;;;;;11.66;87.87;100514.63;5121300;27;45287;-63
2023/03/18 03:29:17;;;;;;;;;14.00;13.00;;;;;11.57;88.51;100499.09;5120868;27;45368;-63
2023/03/18 03:31:42;;;;;;;;;13.00;13.00;;;;;11.53;89.83;100502.75;5121164;27;45387;-63
2023/03/18 03:34:08;;;;;;;;;15.00;14.33;;;;;11.49;88.54;100501.13;5121018;27;45467;-63
2023/03/18 03:36:33;;;;;;;;;21.33;14.00;;;;;11.43;87.99;100504.78;5121276;27;45229;-63
2023/03/18 03:38:59;;;;;;;;;18.33;14.33;;;;;11.40;88.13;100501.38;5120937;27;46910;-64
2023/03/18 03:41:24;;;;;;;;;17.67;17.33;;;;;11.48;87.43;100510.78;5120689;27;45521;-63
2023/03/18 03:43:50;;;;;;;;;17.00;14.67;;;;;11.43;89.67;100515.34;5120865;27;45304;-63
2023/03/18 03:46:15;;;;;;;;;23.33;17.00;;;;;11.44;89.76;100517.09;5121047;27;45379;-63
2023/03/18 03:48:41;;;;;;;;;18.33;15.33;;;;;11.43;89.11;100530.28;5120739;27;46378;-63
2023/03/18 03:51:07;;;;;;;;;14.33;12.00;;;;;11.39;88.56;100540.06;5120609;27;45361;-63
2023/03/18 03:53:33;;;;;;;;;16.00;14.67;;;;;11.26;88.29;100536.06;5120553;27;45268;-63
2023/03/18 03:55:58;;;;;;;;;16.33;13.33;;;;;11.25;88.08;100527.28;5120713;27;45427;-64
2023/03/18 03:58:24;;;;;;;;;22.67;19.67;;;;;11.25;89.43;100536.97;5120352;27;46243;-63
2023/03/18 04:00:49;;;;;;;;;22.00;20.00;;;;;11.14;89.94;100524.13;5120653;27;45423;-63
2023/03/18 04:03:15;;;;;;;;;18.00;18.00;;;;;11.17;88.72;100537.19;5120447;27;45405;-63
2023/03/18 04:05:42;;;;;;;;;24.00;20.00;;;;;11.11;89.46;100538.22;5120347;27;45331;-63
2023/03/18 04:08:07;;;;;;;;;35.67;33.67;;;;;11.08;90.78;100537.44;5120223;27;45675;-63
2023/03/18 04:10:35;;;;;;;;;23.33;20.00;;;;;11.01;91.14;100527.97;5120224;27;45296;-63
2023/03/18 04:13:02;;;;;;;;;22.33;14.67;;;;;11.04;91.43;100534.03;5120189;27;45231;-63
2023/03/18 04:15:27;;;;;;;;;23.33;22.00;;;;;11.05;91.02;100537.53;5120534;27;45441;-63
2023/03/18 04:17:53;;;;;;;;;18.00;18.00;;;;;11.01;91.26;100542.03;5119930;27;46471;-63
2023/03/18 04:20:19;;;;;;;;;26.33;23.67;;;;;11.04;89.92;100552.50;5120140;27;45575;-63
2023/03/18 04:22:45;;;;;;;;;23.67;21.00;;;;;10.98;91.30;100548.25;5120268;27;45238;-63
2023/03/18 04:25:11;;;;;;;;;24.33;21.33;;;;;10.98;89.52;100550.03;5120315;27;45400;-63
2023/03/18 04:27:37;;;;;;;;;25.00;23.00;;;;;10.95;90.92;100561.50;5119820;27;46720;-63
2023/03/18 04:30:05;;;;;;;;;27.67;21.33;;;;;10.88;90.36;100551.19;5119970;27;45482;-63
2023/03/18 04:32:31;;;;;;;;;24.67;22.67;;;;;10.91;90.72;100559.84;5120207;27;45220;-63
2023/03/18 04:34:56;;;;;;;;;20.00;20.00;;;;;10.86;90.47;100561.75;5120243;27;45439;-63
2023/03/18 04:37:22;;;;;;;;;22.67;22.67;;;;;10.77;91.03;100548.81;5119712;27;46571;-63
2023/03/18 04:39:48;;;;;;;;;22.33;21.00;;;;;10.86;91.13;100558.25;5119798;27;45389;-63
2023/03/18 04:42:14;;;;;;;;;21.67;20.67;;;;;10.87;89.81;100562.63;5119692;27;45395;-63
2023/03/18 04:44:40;;;;;;;;;29.00;25.00;;;;;10.87;91.87;100560.84;5120201;27;45255;-63
2023/03/18 04:47:06;;;;;;;;;22.67;22.67;;;;;10.91;90.31;100557.22;5119527;27;46580;-63
2023/03/18 04:49:32;;;;;;;;;33.00;29.00;;;;;10.81;90.80;100542.59;5119600;27;45380;-63
2023/03/18 04:51:57;;;;;;;;;31.33;27.00;;;;;10.86;90.74;100556.47;5119740;27;45840;-63
2023/03/18 04:54:22;;;;;;;;;34.33;29.67;;;;;10.86;89.51;100568.78;5119699;27;45326;-63
2023/03/18 04:56:48;;;;;;;;;22.67;22.33;;;;;10.82;89.66;100573.28;5119422;27;46466;-63
2023/03/18 04:59:13;;;;;;;;;38.33;31.33;;;;;10.76;90.69;100566.41;5119577;27;45264;-63
2023/03/18 05:01:38;;;;;;;;;34.67;28.33;;;;;10.80;90.91;100561.91;5119662;27;45316;-63
2023/03/18 05:04:05;;;;;;;;;33.67;28.67;;;;;10.68;90.52;100552.56;5119492;27;45421;-63
2023/03/18 05:06:32;;;;;;;;;38.33;32.00;;;;;10.71;90.86;100563.03;5119151;27;46295;-63
2023/03/18 05:08:58;;;;;;;;;34.00;30.67;;;;;10.68;90.97;100567.53;5119135;27;45252;-63
2023/03/18 05:11:25;;;;;;;;;38.33;31.33;;;;;10.58;92.06;100564.25;5119436;27;45402;-63
2023/03/18 05:13:51;;;;;;;;;37.67;33.33;;;;;10.59;91.37;100574.75;5118824;27;45441;-63
2023/03/18 05:16:17;;;;;;;;;34.33;33.33;;;;;10.58;91.68;100570.38;5119170;27;45572;-63
2023/03/18 05:18:43;;;;;;;;;39.00;33.67;;;;;10.57;92.13;100565.16;5118307;27;45307;-63
2023/03/18 05:21:09;;;;;;;;;41.33;33.00;;;;;10.62;91.26;100568.53;5119343;27;45238;-63
2023/03/18 05:23:35;;;;;;;;;45.67;34.00;;;;;10.64;92.17;100566.72;5119340;27;45216;-63
2023/03/18 05:26:02;;;;;;;;;39.67;33.00;;;;;10.71;91.86;100575.34;5118950;27;45604;-63
2023/03/18 05:28:27;;;;;;;;;43.67;34.00;;;;;10.75;92.03;100563.81;5118706;27;45277;-63
2023/03/18 05:30:54;;;;;;;;;49.33;36.33;;;;;10.79;92.17;100557.56;5119204;27;45404;-63
2023/03/18 05:33:19;;;;;;;;;47.00;35.00;;;;;10.84;92.45;100566.19;5119370;27;45333;-63
2023/03/18 05:35:45;;;;;;;;;46.00;37.33;;;;;10.95;91.14;100573.81;5118895;27;45299;-63
2023/03/18 05:38:10;;;;;;;;;48.00;37.00;;;;;10.98;91.47;100568.47;5118940;27;45522;-63
2023/03/18 05:40:36;;;;;;;;;50.67;42.00;;;;;10.83;91.82;100537.25;5119021;27;45308;-63
2023/03/18 05:43:02;;;;;;;;;57.67;43.00;;;;;11.08;91.53;100567.31;5118878;27;45375;-63
2023/03/18 05:45:28;;;;;;;;;52.33;40.33;;;;;11.08;92.40;100563.78;5118650;27;46101;-63
2023/03/18 05:47:53;;;;;;;;;56.00;45.00;;;;;11.08;92.16;100559.41;5118814;27;45351;-63
2023/03/18 05:50:34;;;;;;;;;54.00;42.33;;;;;11.17;91.09;100574.09;5118878;27;45399;-63
2023/03/18 05:53:00;;;;;;;;;52.33;40.33;;;;;11.19;91.95;100580.16;5118782;27;45318;-63
2023/03/18 05:55:28;;;;;;;;;54.67;43.00;;;;;11.24;91.77;100578.28;5118414;27;46709;-65
2023/03/18 05:57:54;;;;;;;;;59.33;45.33;;;;;11.28;91.72;100573.78;5118454;27;45336;-65
2023/03/18 06:00:20;;;;;;;;;62.67;47.33;;;;;11.27;90.69;100564.13;5118605;27;45245;-65
2023/03/18 06:02:45;;;;;;;;;57.00;45.33;;;;;11.28;91.22;100572.03;5118569;27;45518;-65
2023/03/18 06:05:11;;;;;;;;;58.67;42.33;;;;;11.25;92.48;100574.72;5118384;27;46586;-65
2023/03/18 06:07:38;;;;;;;;;58.00;45.00;;;;;11.35;91.87;100580.59;5118442;27;45355;-65
2023/03/18 06:10:04;;;;;;;;;55.33;42.33;;;;;11.37;90.29;100578.81;5118527;27;45370;-65
2023/03/18 06:12:29;;;;;;;;;49.33;37.33;;;;;11.32;90.39;100571.00;5118430;27;45296;-65
2023/03/18 06:14:55;;;;;;;;;51.33;41.33;;;;;11.37;90.88;100575.28;5118150;27;45339;-65
2023/03/18 06:17:21;;;;;;;;;49.00;40.00;;;;;11.40;90.82;100575.19;5118318;27;45295;-65
2023/03/18 06:19:47;;;;;;;;;51.00;40.33;;;;;11.40;90.72;100580.47;5118543;27;45445;-65
2023/03/18 06:22:14;;;;;;;;;50.67;39.00;;;;;11.39;91.98;100579.59;5118423;27;45431;-66
2023/03/18 06:24:40;;;;;;;;;46.33;37.33;;;;;11.40;92.52;100572.56;5118179;27;45217;-65
2023/03/18 06:27:05;;;;;;;;;47.67;37.00;;;;;11.38;91.22;100572.59;5118081;27;45446;-65
2023/03/18 06:29:32;;;;;;;;;46.67;35.00;;;;;11.41;92.70;100567.22;5120385;27;45170;-65
2023/03/18 06:31:58;;;;;;;;;50.67;41.00;;;;;11.47;91.73;100582.91;5122469;27;45443;-65
2023/03/18 06:34:23;;;;;;;;;50.00;40.67;;;;;11.52;91.84;100587.16;5121502;27;47366;-65
2023/03/18 06:36:49;;;;;;;;;46.00;37.33;;;;;11.56;90.31;100594.06;5112603;27;45477;-65
2023/03/18 06:39:15;;;;;;;;;52.00;40.67;;;;;11.48;92.08;100581.13;5112482;27;45794;-65
2023/03/18 06:41:40;;;;;;;;;50.00;39.00;;;;;11.49;92.45;100590.75;5101278;27;45462;-65
2023/03/18 06:44:06;;;;;;;;;55.67;41.00;;;;;11.54;92.61;100593.25;5100798;27;46272;-65
2023/03/18 06:46:31;;;;;;;;;50.67;40.67;;;;;11.58;91.27;100606.31;5100939;27;45367;-65
2023/03/18 06:48:56;;;;;;;;;50.67;41.00;;;;;11.62;92.76;100613.22;5101148;27;45452;-65
2023/03/18 06:51:22;;;;;;;;;50.00;37.00;;;;;11.55;90.91;100597.63;5101258;27;45297;-65
2023/03/18 06:53:47;;;;;;;;;37.67;34.33;;;;;11.62;90.84;100601.81;5100700;27;46513;-65
2023/03/18 06:56:15;;;;;;;;;35.00;32.67;;;;;11.60;90.49;100603.63;5100194;27;45254;-65
2023/03/18 06:58:41;;;;;;;;;43.67;37.00;;;;;11.63;91.53;100609.69;5100729;27;45386;-65
2023/03/18 07:01:07;;;;;;;;;49.33;37.00;;;;;11.65;91.39;100604.34;5100961;27;45234;-66
2023/03/18 07:03:32;;;;;;;;;47.00;37.00;;;;;11.41;92.22;100564.59;5100464;27;46411;-65
2023/03/18 07:05:58;;;;;;;;;40.33;35.00;;;;;11.59;91.69;100592.22;5100775;27;45237;-65
2023/03/18 07:08:23;;;;;;;;;44.00;35.00;;;;;11.57;91.88;100601.94;5100628;27;45392;-65
2023/03/18 07:10:52;;;;;;;;;37.33;33.67;;;;;11.57;91.53;100601.06;5100971;27;45439;-65
2023/03/18 07:13:18;;;;;;;;;39.33;35.00;;;;;11.51;91.56;100581.03;5100329;27;46747;-65
2023/03/18 07:15:44;;;;;;;;;52.33;37.00;;;;;11.56;91.92;100600.22;5100502;27;45386;-65
2023/03/18 07:18:10;;;;;;;;;45.00;37.00;;;;;11.56;91.94;100592.31;5100558;27;45237;-63
2023/03/18 07:20:36;;;;;;;;;27.33;27.33;;;;;11.64;91.76;100606.13;5100324;27;45308;-63
2023/03/18 07:23:03;;;;;;;;;38.00;31.00;;;;;11.71;91.40;100612.09;5100018;27;46430;-63
2023/03/18 07:25:30;;;;;;;;;47.33;36.00;;;;;11.65;92.46;100594.66;5081783;27;45363;-63
2023/03/18 07:27:56;;;;;;;;;47.67;37.67;;;;;11.78;91.37;100605.72;5100229;27;45429;-63
2023/03/18 07:30:21;;;;;;;;;45.67;37.00;;;;;11.77;91.67;100600.50;5100389;27;45368;-63
2023/03/18 07:32:48;;;;;;;;;42.67;35.33;;;;;11.89;91.65;100612.44;5099813;27;45327;-65
2023/03/18 07:35:14;;;;;;;;;46.67;37.33;;;;;11.92;92.37;100617.63;5100168;27;45305;-65
2023/03/18 07:37:40;;;;;;;;;36.00;32.00;;;;;11.91;90.95;100605.31;5100057;27;45271;-65
2023/03/18 07:40:07;;;;;;;;;41.33;34.00;;;;;11.93;92.10;100607.06;5099405;27;45963;-65
2023/03/18 07:42:32;;;;;;;;;36.67;33.33;;;;;11.75;91.46;100571.53;5099622;27;47888;-65
2023/03/18 07:44:58;;;;;;;;;44.67;35.00;;;;;11.95;91.24;100604.34;5099811;27;45463;-65
2023/03/18 07:47:23;;;;;;;;;45.00;34.00;;;;;11.94;91.57;100600.03;5100137;27;45671;-65
2023/03/18 07:49:50;;;;;;;;;39.33;33.67;;;;;12.06;91.32;100614.59;5100221;27;45506;-65
2023/03/18 07:52:16;;;;;;;;;51.67;37.33;;;;;12.08;90.43;100610.97;5099872;27;46660;-65
2023/03/18 07:54:42;;;;;;;;;39.33;33.00;;;;;12.13;90.72;100617.00;5099805;27;45343;-65
2023/03/18 07:57:08;;;;;;;;;39.67;33.33;;;;;12.08;91.02;100612.75;5099785;27;45396;-65
2023/03/18 07:59:35;;;;;;;;;35.33;32.33;;;;;12.15;91.08;100616.94;5100159;27;45273;-65
2023/03/18 08:02:01;;;;;;;;;42.33;34.00;;;;;12.19;89.95;100610.66;5099587;27;46554;-65
2023/03/18 08:04:27;;;;;;;;;43.00;33.67;;;;;12.26;90.05;100621.91;5099604;27;45321;-65
2023/03/18 08:06:54;;;;;;;;;35.33;32.00;;;;;12.28;90.41;100615.63;5099909;27;45367;-65
2023/03/18 08:09:19;;;;;;;;;41.67;32.67;;;;;12.21;90.37;100613.25;5099745;27;45316;-65
2023/03/18 08:11:45;;;;;;;;;35.67;30.67;;;;;12.26;90.75;100619.25;5099621;27;46316;-65
2023/03/18 08:14:11;;;;;;;;;40.33;34.00;;;;;12.14;91.31;100602.91;5099579;27;45362;-65
2023/03/18 08:16:36;;;;;;;;;42.00;32.33;;;;;12.09;92.20;100590.75;5099593;27;45414;-65
2023/03/18 08:19:02;;;;;;;;;30.67;27.67;;;;;12.22;91.26;100617.63;5099575;27;45403;-65
2023/03/18 08:21:28;;;;;;;;;33.67;30.67;;;;;12.28;91.65;100612.13;5099267;27;47345;-65
2023/03/18 08:23:55;;;;;;;;;34.00;30.67;;;;;12.34;91.99;100604.00;5098493;27;45402;-65
2023/03/18 08:26:21;;;;;;;;;32.67;30.67;;;;;12.23;92.09;100577.97;5099503;27;45452;-65
2023/03/18 08:28:46;;;;;;;;;26.33;25.67;;;;;12.58;90.07;100618.19;5099429;27;45394;-65
2023/03/18 08:31:13;;;;;;;;;24.33;23.00;;;;;12.47;89.08;100583.34;5099290;27;46250;-65
2023/03/18 08:33:38;;;;;;;;;28.67;26.33;;;;;12.75;88.94;100620.28;5099205;27;45300;-65
2023/03/18 08:36:04;;;;;;;;;30.67;26.67;;;;;12.85;88.66;100623.44;5099398;27;45370;-65
2023/03/18 08:38:30;;;;;;;;;23.33;23.33;;;;;12.97;88.35;100630.97;5099540;27;45402;-65
2023/03/18 08:40:55;;;;;;;;;30.67;27.67;;;;;12.99;88.11;100628.28;5099033;27;45490;-65
2023/03/18 08:43:21;;;;;;;;;31.33;24.00;;;;;13.13;87.67;100630.41;5098746;27;45386;-65
2023/03/18 08:45:51;;;;;;;;;26.00;22.33;;;;;13.51;86.48;100631.72;5132725;27;45492;-65
2023/03/18 08:48:16;;;;;;;;;29.00;22.67;;;;;14.36;86.10;100640.84;5140122;27;45318;-65
2023/03/18 08:50:42;;;;;;;;;29.00;25.00;;;;;15.79;77.74;100633.88;5140361;27;45435;-65
2023/03/18 08:53:08;;;;;;;;;30.00;27.00;;;;;15.57;76.38;100600.34;5139274;27;45398;-65
2023/03/18 08:55:38;;;;;;;;;21.00;21.00;;;;;15.74;75.92;100630.53;5126907;27;45300;-65
2023/03/18 08:58:04;;;;;;;;;20.67;20.67;;;;;15.64;75.95;100636.28;5119618;27;45326;-65
2023/03/18 09:00:31;;;;;;;;;28.00;25.00;;;;;15.63;76.86;100639.84;5131095;27;46857;-65
2023/03/18 09:02:57;;;;;;;;;22.33;20.33;;;;;15.98;76.99;100637.38;5139923;27;45208;-65
2023/03/18 09:05:23;;;;;;;;;19.67;15.67;;;;;16.64;74.27;100637.78;5139738;27;45437;-65
2023/03/18 09:07:50;;;;;;;;;19.67;17.33;;;;;17.29;69.17;100631.84;5138953;27;45500;-65
2023/03/18 09:10:17;;;;;;;;;14.67;14.67;;;;;17.72;68.96;100642.88;5129530;27;45341;-65
2023/03/18 09:12:43;;;;;;;;;13.67;12.00;;;;;17.87;65.97;100639.34;5118956;27;45695;-64
2023/03/18 09:15:10;;;;;;;;;17.00;13.67;;;;;17.99;66.07;100629.84;5119082;27;45459;-64
2023/03/18 09:17:39;;;;;;;;;17.00;14.33;;;;;18.10;64.49;100622.13;5100712;27;45553;-64
2023/03/18 09:20:15;;;;;;;;;12.00;11.00;;;;;17.74;64.49;100604.53;5119180;27;46654;-64
2023/03/18 09:22:41;;;;;;;;;10.33;10.33;;;;;17.83;67.16;100640.47;5117858;27;45363;-65
2023/03/18 09:25:08;;;;;;;;;11.33;11.33;;;;;17.99;66.00;100627.19;5119175;27;45362;-65
2023/03/18 09:27:33;;;;;;;;;16.00;12.67;;;;;18.44;64.50;100625.53;5119182;27;45371;-66
2023/03/18 09:29:59;;;;;;;;;14.00;10.00;;;;;18.42;61.20;100631.91;5118571;27;46217;-68
2023/03/18 09:32:25;;;;;;;;;15.00;13.33;;;;;18.55;59.81;100624.91;5117456;27;45376;-66
2023/03/18 09:34:51;;;;;;;;;12.33;12.33;;;;;18.98;61.51;100620.69;5119013;27;45474;-67
2023/03/18 09:37:17;;;;;;;;;9.67;8.67;;;;;20.36;57.06;100619.19;5118802;27;45387;-66
2023/03/18 09:39:43;;;;;;;;;10.33;9.67;;;;;20.87;56.71;100622.03;5118645;27;45516;-63
2023/03/18 09:42:09;;;;;;;;;14.00;11.33;;;;;21.01;53.03;100618.41;5118660;27;45387;-65
2023/03/18 09:44:36;;;;;;;;;8.00;8.00;;;;;20.99;53.29;100598.06;5118452;27;45353;-64
2023/03/18 09:47:01;;;;;;;;;20.67;19.67;;;;;21.15;53.02;100619.28;5118833;27;45678;-64
2023/03/18 09:49:38;;;;;;;;;9.00;8.33;;;;;22.13;52.26;100624.81;5118477;27;45430;-65
2023/03/18 09:52:35;;;;;;;;;8.67;7.00;;;;;22.79;49.64;100624.44;5118465;27;45307;-65
2023/03/18 09:55:26;;;;;;;;;9.00;8.00;;;;;22.94;48.70;100627.75;5118408;27;45234;-65
2023/03/18 09:57:56;;;;;;;;;8.00;7.00;;;;;23.22;47.80;100613.09;5118580;27;45321;-64
2023/03/18 10:00:28;;;;;;;;;6.00;6.00;;;;;23.23;47.90;100622.00;5118181;27;46253;-65
2023/03/18 10:03:00;;;;;;;;;7.33;7.00;;;;;23.12;46.09;100620.16;5118222;27;45346;-65
2023/03/18 10:05:39;;;;;;;;;6.33;6.33;;;;;22.60;46.78;100622.28;5118551;27;45536;-65
2023/03/18 10:08:18;;;;;;;;;8.00;8.00;;;;;22.36;47.96;100614.25;5118473;27;45257;-65
2023/03/18 10:10:45;;;;;;;;;5.33;5.00;;;;;21.94;47.09;100616.41;5118045;27;46467;-65
2023/03/18 10:13:21;;;;;;;;;6.67;6.33;;;;;21.70;48.72;100619.91;5118286;27;45316;-65
2023/03/18 10:15:51;;;;;;;;;7.67;6.33;;;;;22.34;47.91;100622.41;5118488;27;45383;-65
2023/03/18 10:18:28;;;;;;;;;8.33;7.00;;;;;23.40;46.11;100618.00;5118165;27;45297;-65
2023/03/18 10:21:21;;;;;;;;;5.67;4.00;;;;;24.50;44.34;100623.47;5118210;27;46183;-65
2023/03/18 10:23:58;;;;;;;;;6.00;4.33;;;;;25.50;40.93;100614.09;5118064;27;45258;-65
2023/03/18 10:26:31;;;;;;;;;5.33;3.33;;;;;26.25;40.88;100617.31;5118370;27;45745;-64
2023/03/18 10:29:09;;;;;;;;;7.00;4.00;;;;;26.96;39.90;100612.66;5118187;27;45316;-65
2023/03/18 10:32:02;;;;;;;;;4.00;4.00;;;;;27.46;38.66;100601.56;5117737;27;45386;-65
2023/03/18 10:35:02;;;;;;;;;8.00;4.67;;;;;27.89;37.07;100616.28;5117650;27;45373;-65
2023/03/18 10:37:42;;;;;;;;;4.67;3.00;;;;;27.82;35.97;100601.66;5112504;27;46474;-65
2023/03/18 10:40:13;;;;;;;;;4.00;4.00;;;;;27.65;36.70;100602.47;5118172;27;45296;-65
2023/03/18 10:42:39;;;;;;;;;1.00;1.00;;;;;27.32;36.68;100602.88;5117720;27;45470;-65
2023/03/18 10:45:22;;;;;;;;;6.00;3.33;;;;;26.61;36.08;100609.53;5117956;27;45245;-65
2023/03/18 10:48:26;;;;;;;;;3.67;3.67;;;;;25.59;38.20;100601.63;5118032;27;45293;-65
2023/03/18 10:51:04;;;;;;;;;3.00;3.00;;;;;25.00;38.51;100595.94;5117995;27;45558;-65
2023/03/18 10:53:37;;;;;;;;;5.00;5.00;;;;;24.30;39.99;100593.69;5117545;27;45342;-65
2023/03/18 10:56:08;;;;;;;;;7.00;4.00;;;;;23.72;40.63;100593.06;5117770;27;45464;-65
2023/03/18 10:58:34;;;;;;;;;5.00;3.00;;;;;23.30;41.32;100591.84;5117563;27;45388;-65
2023/03/18 11:01:00;;;;;;;;;4.00;3.00;;;;;22.99;42.52;100593.38;5117795;27;45300;-65
2023/03/18 11:03:34;;;;;;;;;6.33;5.00;;;;;22.66;42.81;100597.66;5117420;27;46381;-65
2023/03/18 11:06:06;;;;;;;;;4.00;4.00;;;;;22.37;44.03;100597.19;5117695;27;45462;-65
2023/03/18 11:08:39;;;;;;;;;3.33;3.33;;;;;21.90;43.96;100595.19;5117526;27;45319;-65
2023/03/18 11:11:34;;;;;;;;;3.33;3.33;;;;;21.48;45.19;100594.63;5117744;27;45246;-65
2023/03/18 11:14:02;;;;;;;;;4.33;2.00;;;;;21.20;45.93;100591.22;5117735;27;45465;-65
2023/03/18 11:16:34;;;;;;;;;5.00;4.67;;;;;20.84;46.81;100591.91;5119223;27;45280;-65